Boise, ID

9:02 PM MST on February 12, 2016 (GMT -0700)
BreckenRidge | | Change Station
CLOSE
Current Station
Personal Weather Station
Location: Boise, ID
Elevation: 2822 ft
Nearby Weather Stations

Elev 2822 ft 43.56 °N, 116.17 °W | Updated 6 minutes ago

Clear
Clear
40.6 °F
Feels Like 41 °F
N
0.0
Wind Variable Wind from NNW

Today
High -- | Low -- °F
--% Chance of Precip.
Yesterday
High -- | Low -- °F
Precip. -- in
Pressure 30.26 in
Visibility 7.0 miles
Clouds Clear
Windchill 41 °F
Dew Point 35 °F
Humidity 81%
Rainfall 0.00 in
Snow Depth Not available.
7:47 AM 6:10 PM
Waxing Crescent, 26% visible
METAR KBOI 130353Z 00000KT 7SM CLR 06/01 A3022 RMK AO2 SLP246 T00560011
Pressure 30.26 in
Visibility 7.0 miles
Clouds Clear
Windchill 41 °F
Dew Point 35 °F
Humidity 81%
Rainfall 0.00 in
Snow Depth Not available.
7:47 AM 6:10 PM
Waxing Crescent, 26% visible
METAR KBOI 130353Z 00000KT 7SM CLR 06/01 A3022 RMK AO2 SLP246 T00560011

10-Day Weather Forecast

Almanac

Astronomy

Feb. 12, 2016 Rise Set
Actual Time
Civil Twilight
Nautical Twilight
Astronomical Twilight
Moon
Length of Visible Light
Length of Day
Tomorrow will be .
, % of the Moon is Illuminated

Today's Extremes

State Highs State Lows

Community

WunderPhotos

Upload Photos

1,892,499 photos uploaded!

WunderBlog® & News

Nearby

Air Quality

  Air Quality AQ Index Pollutant
Not available.

Snow Depth

Station Depth Elevation

Earthquake Activity

City Distance Mag. Time & Date
Minimum magnitude displayed is 2.5.

Coastal Water Temperatures

Place Temperature

Stations

Nearby Weather Stations

Station Location Temp. Windchill Dew Point Humidity Wind Precip. Elev Updated Type
                   

Watches & Warnings

There are currently no watches in effect.